sensor_id;sensor_type;location;lat;lon;timestamp;temperature;humidity
21493;DHT22;10908;50.690;4.400;2022-07-23T00:00:46;17.20;83.80
21493;DHT22;10908;50.690;4.400;2022-07-23T00:03:12;17.20;83.30
21493;DHT22;10908;50.690;4.400;2022-07-23T00:05:39;17.20;83.40
21493;DHT22;10908;50.690;4.400;2022-07-23T00:08:06;17.20;83.10
21493;DHT22;10908;50.690;4.400;2022-07-23T00:10:32;17.30;83.10
21493;DHT22;10908;50.690;4.400;2022-07-23T00:12:58;17.20;82.70
21493;DHT22;10908;50.690;4.400;2022-07-23T00:15:24;17.10;82.80
21493;DHT22;10908;50.690;4.400;2022-07-23T00:17:50;17.00;82.80
21493;DHT22;10908;50.690;4.400;2022-07-23T00:20:15;16.90;83.10
21493;DHT22;10908;50.690;4.400;2022-07-23T00:22:52;16.90;83.00
21493;DHT22;10908;50.690;4.400;2022-07-23T00:25:18;16.80;83.30
21493;DHT22;10908;50.690;4.400;2022-07-23T00:27:44;16.80;83.20
21493;DHT22;10908;50.690;4.400;2022-07-23T00:30:10;16.60;83.50
21493;DHT22;10908;50.690;4.400;2022-07-23T00:32:47;16.60;84.00
21493;DHT22;10908;50.690;4.400;2022-07-23T00:35:13;16.60;84.30
21493;DHT22;10908;50.690;4.400;2022-07-23T00:37:39;16.60;84.10
21493;DHT22;10908;50.690;4.400;2022-07-23T00:40:05;16.40;84.10
21493;DHT22;10908;50.690;4.400;2022-07-23T00:42:32;16.30;84.60
21493;DHT22;10908;50.690;4.400;2022-07-23T00:44:58;16.40;84.80
21493;DHT22;10908;50.690;4.400;2022-07-23T00:47:23;16.30;84.80
21493;DHT22;10908;50.690;4.400;2022-07-23T00:49:49;16.30;84.90
21493;DHT22;10908;50.690;4.400;2022-07-23T00:52:14;16.30;84.90
21493;DHT22;10908;50.690;4.400;2022-07-23T00:54:41;16.30;85.00
21493;DHT22;10908;50.690;4.400;2022-07-23T00:57:07;16.30;85.20
21493;DHT22;10908;50.690;4.400;2022-07-23T00:59:33;16.20;85.70
21493;DHT22;10908;50.690;4.400;2022-07-23T01:01:59;16.30;85.60
21493;DHT22;10908;50.690;4.400;2022-07-23T01:04:25;16.20;85.60
21493;DHT22;10908;50.690;4.400;2022-07-23T01:06:50;16.30;85.50
21493;DHT22;10908;50.690;4.400;2022-07-23T01:09:16;16.30;85.60
21493;DHT22;10908;50.690;4.400;2022-07-23T01:11:42;16.40;85.30
21493;DHT22;10908;50.690;4.400;2022-07-23T01:14:13;16.40;84.90
21493;DHT22;10908;50.690;4.400;2022-07-23T01:16:39;16.30;84.90
21493;DHT22;10908;50.690;4.400;2022-07-23T01:19:05;16.30;85.00
21493;DHT22;10908;50.690;4.400;2022-07-23T01:21:40;16.20;85.30
21493;DHT22;10908;50.690;4.400;2022-07-23T01:24:07;16.20;85.40
21493;DHT22;10908;50.690;4.400;2022-07-23T01:26:33;16.30;85.40
21493;DHT22;10908;50.690;4.400;2022-07-23T01:28:59;16.20;85.30
21493;DHT22;10908;50.690;4.400;2022-07-23T01:31:25;16.20;85.50
21493;DHT22;10908;50.690;4.400;2022-07-23T01:33:51;16.20;85.50
21493;DHT22;10908;50.690;4.400;2022-07-23T01:36:16;16.10;85.30
21493;DHT22;10908;50.690;4.400;2022-07-23T01:38:42;16.00;85.60
21493;DHT22;10908;50.690;4.400;2022-07-23T01:41:08;16.10;86.00
21493;DHT22;10908;50.690;4.400;2022-07-23T01:43:33;16.00;86.00
21493;DHT22;10908;50.690;4.400;2022-07-23T01:45:59;16.10;86.10
21493;DHT22;10908;50.690;4.400;2022-07-23T01:48:24;16.10;85.90
21493;DHT22;10908;50.690;4.400;2022-07-23T01:50:50;16.30;85.90
21493;DHT22;10908;50.690;4.400;2022-07-23T01:53:16;16.30;85.40
21493;DHT22;10908;50.690;4.400;2022-07-23T01:55:42;16.20;85.30
21493;DHT22;10908;50.690;4.400;2022-07-23T01:58:08;16.10;85.60
21493;DHT22;10908;50.690;4.400;2022-07-23T02:00:35;16.10;85.80
21493;DHT22;10908;50.690;4.400;2022-07-23T02:03:01;16.10;85.50
21493;DHT22;10908;50.690;4.400;2022-07-23T02:05:27;16.10;85.50
21493;DHT22;10908;50.690;4.400;2022-07-23T02:07:54;16.20;85.30
21493;DHT22;10908;50.690;4.400;2022-07-23T02:10:20;16.10;85.30
21493;DHT22;10908;50.690;4.400;2022-07-23T02:12:46;16.10;85.50
21493;DHT22;10908;50.690;4.400;2022-07-23T02:15:12;16.10;85.60
21493;DHT22;10908;50.690;4.400;2022-07-23T02:17:38;16.20;85.30
21493;DHT22;10908;50.690;4.400;2022-07-23T02:20:05;16.20;85.00
21493;DHT22;10908;50.690;4.400;2022-07-23T02:22:30;16.10;85.30
21493;DHT22;10908;50.690;4.400;2022-07-23T02:24:56;16.10;85.40
21493;DHT22;10908;50.690;4.400;2022-07-23T02:27:22;16.00;85.60
21493;DHT22;10908;50.690;4.400;2022-07-23T02:29:48;16.00;85.70
21493;DHT22;10908;50.690;4.400;2022-07-23T02:32:14;16.00;85.50
21493;DHT22;10908;50.690;4.400;2022-07-23T02:34:40;16.00;85.50
21493;DHT22;10908;50.690;4.400;2022-07-23T02:37:05;15.90;85.30
21493;DHT22;10908;50.690;4.400;2022-07-23T02:39:31;15.80;85.60
21493;DHT22;10908;50.690;4.400;2022-07-23T02:41:57;15.80;86.00
21493;DHT22;10908;50.690;4.400;2022-07-23T02:44:22;15.80;86.10
21493;DHT22;10908;50.690;4.400;2022-07-23T02:46:48;15.70;86.10
21493;DHT22;10908;50.690;4.400;2022-07-23T02:49:13;15.60;86.30
21493;DHT22;10908;50.690;4.400;2022-07-23T02:51:39;15.60;86.50
21493;DHT22;10908;50.690;4.400;2022-07-23T02:54:05;15.60;86.70
21493;DHT22;10908;50.690;4.400;2022-07-23T02:56:30;15.60;86.80
21493;DHT22;10908;50.690;4.400;2022-07-23T02:58:56;15.80;87.10
21493;DHT22;10908;50.690;4.400;2022-07-23T03:01:22;15.80;86.80
21493;DHT22;10908;50.690;4.400;2022-07-23T03:03:47;15.80;86.40
21493;DHT22;10908;50.690;4.400;2022-07-23T03:06:13;15.80;86.40
21493;DHT22;10908;50.690;4.400;2022-07-23T03:08:39;15.90;86.20
21493;DHT22;10908;50.690;4.400;2022-07-23T03:11:04;15.80;85.80
21493;DHT22;10908;50.690;4.400;2022-07-23T03:13:39;15.80;85.90
21493;DHT22;10908;50.690;4.400;2022-07-23T03:16:06;15.80;85.70
21493;DHT22;10908;50.690;4.400;2022-07-23T03:18:32;15.70;85.60
21493;DHT22;10908;50.690;4.400;2022-07-23T03:20:58;15.60;85.70
21493;DHT22;10908;50.690;4.400;2022-07-23T03:23:23;15.60;85.60
21493;DHT22;10908;50.690;4.400;2022-07-23T03:25:49;15.60;85.70
21493;DHT22;10908;50.690;4.400;2022-07-23T03:28:16;15.70;85.70
21493;DHT22;10908;50.690;4.400;2022-07-23T03:30:43;15.60;85.70
21493;DHT22;10908;50.690;4.400;2022-07-23T03:33:15;15.40;85.70
21493;DHT22;10908;50.690;4.400;2022-07-23T03:35:45;15.40;86.30
21493;DHT22;10908;50.690;4.400;2022-07-23T03:38:11;15.50;86.40
21493;DHT22;10908;50.690;4.400;2022-07-23T03:40:38;15.50;86.30
21493;DHT22;10908;50.690;4.400;2022-07-23T03:43:03;15.60;86.10
21493;DHT22;10908;50.690;4.400;2022-07-23T03:45:29;15.80;85.30
21493;DHT22;10908;50.690;4.400;2022-07-23T03:47:55;15.60;85.10
21493;DHT22;10908;50.690;4.400;2022-07-23T03:50:21;15.60;85.40
21493;DHT22;10908;50.690;4.400;2022-07-23T03:52:47;15.60;85.50
21493;DHT22;10908;50.690;4.400;2022-07-23T03:55:12;15.40;85.60
21493;DHT22;10908;50.690;4.400;2022-07-23T03:57:38;15.40;86.00
21493;DHT22;10908;50.690;4.400;2022-07-23T04:00:06;15.50;86.30
21493;DHT22;10908;50.690;4.400;2022-07-23T04:02:33;15.60;86.50
21493;DHT22;10908;50.690;4.400;2022-07-23T04:04:58;15.60;86.00
21493;DHT22;10908;50.690;4.400;2022-07-23T04:07:25;15.80;86.10
21493;DHT22;10908;50.690;4.400;2022-07-23T04:09:51;15.90;85.40
21493;DHT22;10908;50.690;4.400;2022-07-23T04:12:16;15.90;85.20
21493;DHT22;10908;50.690;4.400;2022-07-23T04:14:42;15.90;85.00
21493;DHT22;10908;50.690;4.400;2022-07-23T04:17:08;16.30;84.60
21493;DHT22;10908;50.690;4.400;2022-07-23T04:19:33;16.60;83.30
21493;DHT22;10908;50.690;4.400;2022-07-23T04:22:01;16.60;83.30
21493;DHT22;10908;50.690;4.400;2022-07-23T04:24:26;16.40;83.60
21493;DHT22;10908;50.690;4.400;2022-07-23T04:26:52;16.30;83.90
21493;DHT22;10908;50.690;4.400;2022-07-23T04:29:18;16.40;84.00
21493;DHT22;10908;50.690;4.400;2022-07-23T04:31:44;16.30;84.50
21493;DHT22;10908;50.690;4.400;2022-07-23T04:34:09;16.50;84.40
21493;DHT22;10908;50.690;4.400;2022-07-23T04:36:35;16.80;83.40
21493;DHT22;10908;50.690;4.400;2022-07-23T04:39:01;17.10;82.50
21493;DHT22;10908;50.690;4.400;2022-07-23T04:41:26;16.90;81.60
21493;DHT22;10908;50.690;4.400;2022-07-23T04:43:52;16.90;82.50
21493;DHT22;10908;50.690;4.400;2022-07-23T04:46:18;17.00;82.50
21493;DHT22;10908;50.690;4.400;2022-07-23T04:48:44;17.50;81.20
21493;DHT22;10908;50.690;4.400;2022-07-23T04:51:09;17.80;79.70
21493;DHT22;10908;50.690;4.400;2022-07-23T04:53:37;17.90;79.10
21493;DHT22;10908;50.690;4.400;2022-07-23T04:56:04;18.20;78.10
21493;DHT22;10908;50.690;4.400;2022-07-23T04:58:29;18.40;76.90
21493;DHT22;10908;50.690;4.400;2022-07-23T05:00:57;18.20;76.70
21493;DHT22;10908;50.690;4.400;2022-07-23T05:03:23;17.80;78.40
21493;DHT22;10908;50.690;4.400;2022-07-23T05:05:49;17.50;79.80
21493;DHT22;10908;50.690;4.400;2022-07-23T05:08:14;17.50;80.10
21493;DHT22;10908;50.690;4.400;2022-07-23T05:10:40;17.70;80.00
21493;DHT22;10908;50.690;4.400;2022-07-23T05:13:06;18.00;78.50
21493;DHT22;10908;50.690;4.400;2022-07-23T05:15:32;18.00;78.60
21493;DHT22;10908;50.690;4.400;2022-07-23T05:17:57;17.90;79.10
21493;DHT22;10908;50.690;4.400;2022-07-23T05:20:24;17.90;79.30
21493;DHT22;10908;50.690;4.400;2022-07-23T05:22:50;17.80;79.50
21493;DHT22;10908;50.690;4.400;2022-07-23T05:25:15;17.80;79.90
21493;DHT22;10908;50.690;4.400;2022-07-23T05:27:41;17.80;80.00
21493;DHT22;10908;50.690;4.400;2022-07-23T05:30:07;17.90;79.90
21493;DHT22;10908;50.690;4.400;2022-07-23T05:32:33;18.10;79.70
21493;DHT22;10908;50.690;4.400;2022-07-23T05:34:59;18.20;78.70
21493;DHT22;10908;50.690;4.400;2022-07-23T05:37:24;18.20;78.80
21493;DHT22;10908;50.690;4.400;2022-07-23T05:39:50;18.20;79.20
21493;DHT22;10908;50.690;4.400;2022-07-23T05:42:16;18.20;79.50
21493;DHT22;10908;50.690;4.400;2022-07-23T05:44:42;18.20;80.00
21493;DHT22;10908;50.690;4.400;2022-07-23T05:47:07;18.20;80.20
21493;DHT22;10908;50.690;4.400;2022-07-23T05:49:33;18.20;80.10
21493;DHT22;10908;50.690;4.400;2022-07-23T05:52:03;18.20;80.10
21493;DHT22;10908;50.690;4.400;2022-07-23T05:54:29;18.10;80.50
21493;DHT22;10908;50.690;4.400;2022-07-23T05:56:54;18.00;80.40
21493;DHT22;10908;50.690;4.400;2022-07-23T05:59:20;18.20;80.60
21493;DHT22;10908;50.690;4.400;2022-07-23T06:01:46;18.30;80.20
21493;DHT22;10908;50.690;4.400;2022-07-23T06:04:11;18.40;80.10
21493;DHT22;10908;50.690;4.400;2022-07-23T06:06:37;18.40;80.00
21493;DHT22;10908;50.690;4.400;2022-07-23T06:09:03;18.40;79.70
21493;DHT22;10908;50.690;4.400;2022-07-23T06:11:29;18.30;79.40
21493;DHT22;10908;50.690;4.400;2022-07-23T06:13:55;18.10;80.30
21493;DHT22;10908;50.690;4.400;2022-07-23T06:16:20;17.80;80.50
21493;DHT22;10908;50.690;4.400;2022-07-23T06:18:46;17.90;81.70
21493;DHT22;10908;50.690;4.400;2022-07-23T06:21:11;17.90;81.70
21493;DHT22;10908;50.690;4.400;2022-07-23T06:23:37;18.10;82.30
21493;DHT22;10908;50.690;4.400;2022-07-23T06:26:03;18.10;80.80
21493;DHT22;10908;50.690;4.400;2022-07-23T06:28:28;18.20;81.00
21493;DHT22;10908;50.690;4.400;2022-07-23T06:30:54;18.50;80.70
21493;DHT22;10908;50.690;4.400;2022-07-23T06:33:19;18.70;79.80
21493;DHT22;10908;50.690;4.400;2022-07-23T06:35:45;18.80;80.10
21493;DHT22;10908;50.690;4.400;2022-07-23T06:38:11;19.30;78.50
21493;DHT22;10908;50.690;4.400;2022-07-23T06:40:36;19.50;77.80
21493;DHT22;10908;50.690;4.400;2022-07-23T06:43:02;19.60;75.70
21493;DHT22;10908;50.690;4.400;2022-07-23T06:45:28;19.40;75.70
21493;DHT22;10908;50.690;4.400;2022-07-23T06:47:53;19.40;76.30
21493;DHT22;10908;50.690;4.400;2022-07-23T06:50:19;19.10;76.80
21493;DHT22;10908;50.690;4.400;2022-07-23T06:52:45;18.70;78.30
21493;DHT22;10908;50.690;4.400;2022-07-23T06:55:10;18.60;79.50
21493;DHT22;10908;50.690;4.400;2022-07-23T06:57:36;18.30;80.40
21493;DHT22;10908;50.690;4.400;2022-07-23T07:00:03;18.20;81.00
21493;DHT22;10908;50.690;4.400;2022-07-23T07:02:29;18.10;81.90
21493;DHT22;10908;50.690;4.400;2022-07-23T07:04:54;18.20;82.40
21493;DHT22;10908;50.690;4.400;2022-07-23T07:07:21;18.40;82.20
21493;DHT22;10908;50.690;4.400;2022-07-23T07:09:47;18.60;81.80
21493;DHT22;10908;50.690;4.400;2022-07-23T07:12:12;18.80;81.70
21493;DHT22;10908;50.690;4.400;2022-07-23T07:14:38;19.00;81.00
21493;DHT22;10908;50.690;4.400;2022-07-23T07:17:04;19.30;80.20
21493;DHT22;10908;50.690;4.400;2022-07-23T07:19:30;19.50;78.80
21493;DHT22;10908;50.690;4.400;2022-07-23T07:21:55;19.60;78.90
21493;DHT22;10908;50.690;4.400;2022-07-23T07:24:21;19.70;78.90
21493;DHT22;10908;50.690;4.400;2022-07-23T07:26:47;19.70;77.50
21493;DHT22;10908;50.690;4.400;2022-07-23T07:29:12;19.60;77.90
21493;DHT22;10908;50.690;4.400;2022-07-23T07:31:38;19.80;79.00
21493;DHT22;10908;50.690;4.400;2022-07-23T07:34:04;19.90;78.70
21493;DHT22;10908;50.690;4.400;2022-07-23T07:36:29;20.10;78.40
21493;DHT22;10908;50.690;4.400;2022-07-23T07:38:55;20.20;77.30
21493;DHT22;10908;50.690;4.400;2022-07-23T07:41:21;20.30;77.30
21493;DHT22;10908;50.690;4.400;2022-07-23T07:43:50;20.20;76.00
21493;DHT22;10908;50.690;4.400;2022-07-23T07:46:16;20.00;76.50
21493;DHT22;10908;50.690;4.400;2022-07-23T07:48:41;20.00;77.10
21493;DHT22;10908;50.690;4.400;2022-07-23T07:51:07;20.10;76.40
21493;DHT22;10908;50.690;4.400;2022-07-23T07:53:33;20.00;75.50
21493;DHT22;10908;50.690;4.400;2022-07-23T07:55:59;19.90;75.60
21493;DHT22;10908;50.690;4.400;2022-07-23T07:58:24;19.90;73.80
21493;DHT22;10908;50.690;4.400;2022-07-23T08:00:50;20.00;75.40
21493;DHT22;10908;50.690;4.400;2022-07-23T08:03:16;19.80;74.30
21493;DHT22;10908;50.690;4.400;2022-07-23T08:05:42;19.60;75.20
21493;DHT22;10908;50.690;4.400;2022-07-23T08:08:08;19.80;76.00
21493;DHT22;10908;50.690;4.400;2022-07-23T08:10:35;19.70;76.10
21493;DHT22;10908;50.690;4.400;2022-07-23T08:13:00;19.70;75.80
21493;DHT22;10908;50.690;4.400;2022-07-23T08:15:28;19.80;75.60
21493;DHT22;10908;50.690;4.400;2022-07-23T08:17:54;20.00;74.60
21493;DHT22;10908;50.690;4.400;2022-07-23T08:20:21;20.10;75.50
21493;DHT22;10908;50.690;4.400;2022-07-23T08:22:52;20.20;75.10
21493;DHT22;10908;50.690;4.400;2022-07-23T08:25:27;20.40;74.70
21493;DHT22;10908;50.690;4.400;2022-07-23T08:27:53;20.40;73.30
21493;DHT22;10908;50.690;4.400;2022-07-23T08:30:19;20.40;72.70
21493;DHT22;10908;50.690;4.400;2022-07-23T08:33:05;20.40;72.80
21493;DHT22;10908;50.690;4.400;2022-07-23T08:35:34;20.40;72.80
21493;DHT22;10908;50.690;4.400;2022-07-23T08:38:03;20.60;72.30
21493;DHT22;10908;50.690;4.400;2022-07-23T08:40:35;20.60;72.10
21493;DHT22;10908;50.690;4.400;2022-07-23T08:43:10;20.60;71.20
21493;DHT22;10908;50.690;4.400;2022-07-23T08:45:39;20.80;71.40
21493;DHT22;10908;50.690;4.400;2022-07-23T08:48:07;20.90;70.10
21493;DHT22;10908;50.690;4.400;2022-07-23T08:50:34;21.00;68.50
21493;DHT22;10908;50.690;4.400;2022-07-23T08:53:02;21.00;68.80
21493;DHT22;10908;50.690;4.400;2022-07-23T08:55:30;21.10;69.20
21493;DHT22;10908;50.690;4.400;2022-07-23T08:57:56;21.30;71.00
21493;DHT22;10908;50.690;4.400;2022-07-23T09:00:22;21.30;67.90
21493;DHT22;10908;50.690;4.400;2022-07-23T09:02:48;21.30;66.30
21493;DHT22;10908;50.690;4.400;2022-07-23T09:05:16;21.30;66.50
21493;DHT22;10908;50.690;4.400;2022-07-23T09:10:29;21.40;66.80
21493;DHT22;10908;50.690;4.400;2022-07-23T09:12:55;21.40;67.00
21493;DHT22;10908;50.690;4.400;2022-07-23T09:15:21;21.50;65.90
21493;DHT22;10908;50.690;4.400;2022-07-23T09:17:46;21.30;65.50
21493;DHT22;10908;50.690;4.400;2022-07-23T09:20:15;21.40;65.70
21493;DHT22;10908;50.690;4.400;2022-07-23T09:22:46;21.50;67.80
21493;DHT22;10908;50.690;4.400;2022-07-23T09:25:17;21.60;69.10
21493;DHT22;10908;50.690;4.400;2022-07-23T09:27:49;21.80;68.00
21493;DHT22;10908;50.690;4.400;2022-07-23T09:30:16;21.80;66.40
21493;DHT22;10908;50.690;4.400;2022-07-23T09:32:42;21.90;65.60
21493;DHT22;10908;50.690;4.400;2022-07-23T09:35:08;21.80;65.00
21493;DHT22;10908;50.690;4.400;2022-07-23T09:37:34;21.90;65.40
21493;DHT22;10908;50.690;4.400;2022-07-23T09:40:08;22.00;66.50
21493;DHT22;10908;50.690;4.400;2022-07-23T09:42:34;22.10;65.50
21493;DHT22;10908;50.690;4.400;2022-07-23T09:45:00;22.30;64.60
21493;DHT22;10908;50.690;4.400;2022-07-23T09:47:31;22.50;63.90
21493;DHT22;10908;50.690;4.400;2022-07-23T09:50:03;22.40;62.50
21493;DHT22;10908;50.690;4.400;2022-07-23T09:52:36;22.30;64.00
21493;DHT22;10908;50.690;4.400;2022-07-23T09:55:08;22.40;61.60
21493;DHT22;10908;50.690;4.400;2022-07-23T09:57:33;22.50;62.50
21493;DHT22;10908;50.690;4.400;2022-07-23T10:00:05;22.40;62.20
21493;DHT22;10908;50.690;4.400;2022-07-23T10:02:34;22.40;62.40
21493;DHT22;10908;50.690;4.400;2022-07-23T10:05:02;22.50;62.10
21493;DHT22;10908;50.690;4.400;2022-07-23T10:07:32;22.60;61.00
21493;DHT22;10908;50.690;4.400;2022-07-23T10:10:00;22.70;60.90
21493;DHT22;10908;50.690;4.400;2022-07-23T10:12:26;22.80;60.90
21493;DHT22;10908;50.690;4.400;2022-07-23T10:14:56;22.90;59.70
21493;DHT22;10908;50.690;4.400;2022-07-23T10:17:22;22.90;59.50
21493;DHT22;10908;50.690;4.400;2022-07-23T10:19:48;23.00;61.40
21493;DHT22;10908;50.690;4.400;2022-07-23T10:22:24;23.00;59.20
21493;DHT22;10908;50.690;4.400;2022-07-23T10:28:04;22.50;58.60
21493;DHT22;10908;50.690;4.400;2022-07-23T10:38:51;22.90;57.00
21493;DHT22;10908;50.690;4.400;2022-07-23T10:41:34;22.90;57.40
21493;DHT22;10908;50.690;4.400;2022-07-23T10:47:46;23.10;57.50
21493;DHT22;10908;50.690;4.400;2022-07-23T10:50:22;23.20;57.80
21493;DHT22;10908;50.690;4.400;2022-07-23T10:57:59;22.70;57.80
21493;DHT22;10908;50.690;4.400;2022-07-23T11:00:27;22.80;58.10
21493;DHT22;10908;50.690;4.400;2022-07-23T11:02:59;22.90;57.00
21493;DHT22;10908;50.690;4.400;2022-07-23T11:05:48;23.10;57.50
21493;DHT22;10908;50.690;4.400;2022-07-23T11:08:18;23.10;57.50
21493;DHT22;10908;50.690;4.400;2022-07-23T11:16:20;23.30;56.80
21493;DHT22;10908;50.690;4.400;2022-07-23T11:18:52;23.40;57.50
21493;DHT22;10908;50.690;4.400;2022-07-23T11:31:59;23.70;55.50
21493;DHT22;10908;50.690;4.400;2022-07-23T11:34:32;23.80;55.80
21493;DHT22;10908;50.690;4.400;2022-07-23T11:36:58;23.80;53.60
21493;DHT22;10908;50.690;4.400;2022-07-23T11:39:26;23.90;55.60
21493;DHT22;10908;50.690;4.400;2022-07-23T11:41:52;24.00;57.70
21493;DHT22;10908;50.690;4.400;2022-07-23T11:46:57;24.30;55.10
21493;DHT22;10908;50.690;4.400;2022-07-23T11:49:24;24.30;53.40
21493;DHT22;10908;50.690;4.400;2022-07-23T11:52:09;24.40;56.40
21493;DHT22;10908;50.690;4.400;2022-07-23T11:54:37;24.60;53.30
21493;DHT22;10908;50.690;4.400;2022-07-23T11:57:11;24.60;52.10
21493;DHT22;10908;50.690;4.400;2022-07-23T11:59:39;24.60;52.40
21493;DHT22;10908;50.690;4.400;2022-07-23T12:02:06;24.70;53.40
21493;DHT22;10908;50.690;4.400;2022-07-23T12:04:39;24.80;53.90
21493;DHT22;10908;50.690;4.400;2022-07-23T12:07:35;24.80;51.70
21493;DHT22;10908;50.690;4.400;2022-07-23T12:10:14;24.80;51.40
21493;DHT22;10908;50.690;4.400;2022-07-23T12:13:10;24.70;52.80
21493;DHT22;10908;50.690;4.400;2022-07-23T12:15:41;24.90;51.40
21493;DHT22;10908;50.690;4.400;2022-07-23T12:18:09;24.90;52.20
21493;DHT22;10908;50.690;4.400;2022-07-23T12:20:38;25.00;53.30
21493;DHT22;10908;50.690;4.400;2022-07-23T12:23:06;24.90;52.60
21493;DHT22;10908;50.690;4.400;2022-07-23T12:25:35;24.90;53.50
21493;DHT22;10908;50.690;4.400;2022-07-23T12:33:04;25.30;53.30
21493;DHT22;10908;50.690;4.400;2022-07-23T12:35:36;25.20;52.30
21493;DHT22;10908;50.690;4.400;2022-07-23T12:38:05;25.10;51.40
21493;DHT22;10908;50.690;4.400;2022-07-23T12:43:10;25.10;52.10
21493;DHT22;10908;50.690;4.400;2022-07-23T12:45:53;24.90;51.80
21493;DHT22;10908;50.690;4.400;2022-07-23T12:48:28;25.00;51.20
21493;DHT22;10908;50.690;4.400;2022-07-23T12:50:59;25.10;51.10
21493;DHT22;10908;50.690;4.400;2022-07-23T12:56:05;25.40;51.20
21493;DHT22;10908;50.690;4.400;2022-07-23T13:01:07;25.30;51.00
21493;DHT22;10908;50.690;4.400;2022-07-23T13:03:41;25.20;51.60
21493;DHT22;10908;50.690;4.400;2022-07-23T13:06:10;25.20;51.80
21493;DHT22;10908;50.690;4.400;2022-07-23T13:08:38;25.30;50.90
21493;DHT22;10908;50.690;4.400;2022-07-23T13:11:05;25.20;50.90
21493;DHT22;10908;50.690;4.400;2022-07-23T13:13:34;25.30;50.90
21493;DHT22;10908;50.690;4.400;2022-07-23T13:16:01;25.60;51.60
21493;DHT22;10908;50.690;4.400;2022-07-23T13:18:28;25.70;50.20
21493;DHT22;10908;50.690;4.400;2022-07-23T13:20:54;25.80;51.60
21493;DHT22;10908;50.690;4.400;2022-07-23T13:23:21;26.00;51.00
21493;DHT22;10908;50.690;4.400;2022-07-23T13:25:47;26.00;49.60
21493;DHT22;10908;50.690;4.400;2022-07-23T13:28:14;26.00;49.10
21493;DHT22;10908;50.690;4.400;2022-07-23T13:30:41;25.90;49.40
21493;DHT22;10908;50.690;4.400;2022-07-23T13:33:07;26.10;50.20
21493;DHT22;10908;50.690;4.400;2022-07-23T13:35:34;26.10;49.10
21493;DHT22;10908;50.690;4.400;2022-07-23T13:38:00;26.00;49.20
21493;DHT22;10908;50.690;4.400;2022-07-23T13:40:26;26.00;49.00
21493;DHT22;10908;50.690;4.400;2022-07-23T13:42:53;26.20;51.60
21493;DHT22;10908;50.690;4.400;2022-07-23T13:45:18;26.40;51.20
21493;DHT22;10908;50.690;4.400;2022-07-23T13:47:44;26.40;50.40
21493;DHT22;10908;50.690;4.400;2022-07-23T13:50:10;26.40;50.90
21493;DHT22;10908;50.690;4.400;2022-07-23T13:52:36;26.40;49.90
21493;DHT22;10908;50.690;4.400;2022-07-23T13:55:04;26.50;48.10
21493;DHT22;10908;50.690;4.400;2022-07-23T13:57:31;26.30;48.20
21493;DHT22;10908;50.690;4.400;2022-07-23T13:59:56;26.40;47.50
21493;DHT22;10908;50.690;4.400;2022-07-23T14:02:22;26.30;50.00
21493;DHT22;10908;50.690;4.400;2022-07-23T14:04:48;26.30;48.50
21493;DHT22;10908;50.690;4.400;2022-07-23T14:07:14;26.20;48.20
21493;DHT22;10908;50.690;4.400;2022-07-23T14:09:40;26.10;48.20
21493;DHT22;10908;50.690;4.400;2022-07-23T14:12:06;26.10;48.30
21493;DHT22;10908;50.690;4.400;2022-07-23T14:14:32;26.20;48.80
21493;DHT22;10908;50.690;4.400;2022-07-23T14:16:58;26.20;49.00
21493;DHT22;10908;50.690;4.400;2022-07-23T14:19:24;26.30;48.40
21493;DHT22;10908;50.690;4.400;2022-07-23T14:21:49;26.20;47.40
21493;DHT22;10908;50.690;4.400;2022-07-23T14:24:16;26.40;47.50
21493;DHT22;10908;50.690;4.400;2022-07-23T14:26:42;26.40;47.50
21493;DHT22;10908;50.690;4.400;2022-07-23T14:29:08;26.20;47.40
21493;DHT22;10908;50.690;4.400;2022-07-23T14:31:34;26.30;48.70
21493;DHT22;10908;50.690;4.400;2022-07-23T14:34:00;26.40;48.50
21493;DHT22;10908;50.690;4.400;2022-07-23T14:36:26;26.30;48.40
21493;DHT22;10908;50.690;4.400;2022-07-23T14:38:52;26.40;46.90
21493;DHT22;10908;50.690;4.400;2022-07-23T14:41:17;26.50;47.80
21493;DHT22;10908;50.690;4.400;2022-07-23T14:43:43;26.40;46.90
21493;DHT22;10908;50.690;4.400;2022-07-23T14:46:10;26.50;47.50
21493;DHT22;10908;50.690;4.400;2022-07-23T14:48:36;26.60;47.60
21493;DHT22;10908;50.690;4.400;2022-07-23T14:51:02;26.60;48.30
21493;DHT22;10908;50.690;4.400;2022-07-23T14:53:28;26.70;48.10
21493;DHT22;10908;50.690;4.400;2022-07-23T14:55:54;26.70;47.20
21493;DHT22;10908;50.690;4.400;2022-07-23T14:58:24;26.70;46.20
21493;DHT22;10908;50.690;4.400;2022-07-23T15:00:51;26.80;46.00
21493;DHT22;10908;50.690;4.400;2022-07-23T15:03:17;26.90;46.90
21493;DHT22;10908;50.690;4.400;2022-07-23T15:05:42;26.90;47.30
21493;DHT22;10908;50.690;4.400;2022-07-23T15:08:08;26.80;46.80
21493;DHT22;10908;50.690;4.400;2022-07-23T15:10:34;26.80;46.00
21493;DHT22;10908;50.690;4.400;2022-07-23T15:12:59;26.80;46.00
21493;DHT22;10908;50.690;4.400;2022-07-23T15:15:25;26.80;47.10
21493;DHT22;10908;50.690;4.400;2022-07-23T15:17:50;26.80;45.60
21493;DHT22;10908;50.690;4.400;2022-07-23T15:20:16;26.70;46.70
21493;DHT22;10908;50.690;4.400;2022-07-23T15:22:42;26.60;45.90
21493;DHT22;10908;50.690;4.400;2022-07-23T15:25:08;26.60;47.00
21493;DHT22;10908;50.690;4.400;2022-07-23T15:27:34;26.80;48.00
21493;DHT22;10908;50.690;4.400;2022-07-23T15:29:59;26.80;46.70
21493;DHT22;10908;50.690;4.400;2022-07-23T15:32:25;26.70;46.60
21493;DHT22;10908;50.690;4.400;2022-07-23T15:34:53;26.70;47.50
21493;DHT22;10908;50.690;4.400;2022-07-23T15:37:18;26.70;48.20
21493;DHT22;10908;50.690;4.400;2022-07-23T15:39:44;26.70;46.80
21493;DHT22;10908;50.690;4.400;2022-07-23T15:42:10;26.60;46.70
21493;DHT22;10908;50.690;4.400;2022-07-23T15:46:25;26.50;47.10
21493;DHT22;10908;50.690;4.400;2022-07-23T15:48:51;26.40;46.70
21493;DHT22;10908;50.690;4.400;2022-07-23T15:51:17;26.40;47.90
21493;DHT22;10908;50.690;4.400;2022-07-23T15:53:43;26.50;47.20
21493;DHT22;10908;50.690;4.400;2022-07-23T15:56:10;26.60;47.30
21493;DHT22;10908;50.690;4.400;2022-07-23T15:58:36;26.70;47.00
21493;DHT22;10908;50.690;4.400;2022-07-23T16:01:03;26.70;47.10
21493;DHT22;10908;50.690;4.400;2022-07-23T16:03:33;26.80;47.20
21493;DHT22;10908;50.690;4.400;2022-07-23T16:05:59;26.60;46.20
21493;DHT22;10908;50.690;4.400;2022-07-23T16:08:25;26.60;47.00
21493;DHT22;10908;50.690;4.400;2022-07-23T16:10:50;26.70;47.90
21493;DHT22;10908;50.690;4.400;2022-07-23T16:13:16;26.80;46.60
21493;DHT22;10908;50.690;4.400;2022-07-23T16:15:41;26.80;45.90
21493;DHT22;10908;50.690;4.400;2022-07-23T16:18:08;26.60;46.40
21493;DHT22;10908;50.690;4.400;2022-07-23T16:20:35;26.70;48.80
21493;DHT22;10908;50.690;4.400;2022-07-23T16:23:01;26.80;48.40
21493;DHT22;10908;50.690;4.400;2022-07-23T16:25:27;26.80;46.00